
Distance (Route):
Temperature : 19.9°C
Humidity : 34.2%
Pressure : 814.2hPa| Receiver | Frames | First received | Last received |
|---|---|---|---|
| AUTORXJP | 270 | 2026-09-03 23:36:58 | 2026-09-04 02:02:00 |
| Receiver | Date | Latitude | Longitude | Direction | Speed | Altitude | Climb | Temperature | Humidity | Pressure | Voltage | Killtimer | Uptime | BKT | XDATA |
|---|---|---|---|---|---|---|---|---|---|---|---|---|---|---|---|
| AUTORXJP | 2026-09-04 02:02:00 | 43.31590 | 4.92261 | 144° | 31km/h | 2025m | -3.6m/s | 19.9°C | 34.2% | 814.2hPa | 0V | 00:00:00 | 00:00:00 | 00:00:00 | |
| AUTORXJP | 2026-09-04 02:01:29 | 43.31719 | 4.92149 | 138° | 27km/h | 2117m | -3.7m/s | 19.3°C | 32.7% | 805.5hPa | 0V | 00:00:00 | 00:00:00 | 00:00:00 | |
| AUTORXJP | 2026-09-04 02:00:58 | 43.31877 | 4.92006 | 147° | 27km/h | 2227m | -3.5m/s | 18.6°C | 28.8% | 795.1hPa | 0V | 00:00:00 | 00:00:00 | 00:00:00 | |
| AUTORXJP | 2026-09-04 02:00:27 | 43.32007 | 4.91885 | 172° | 18km/h | 2330m | -3.6m/s | 18.3°C | 26.9% | 785.6hPa | 0V | 00:00:00 | 00:00:00 | 00:00:00 | |
| AUTORXJP | 2026-09-04 01:59:56 | 43.32125 | 4.91808 | 179° | 16km/h | 2434m | -3.3m/s | 18.2°C | 28.4% | 776.0hPa | 0V | 00:00:00 | 00:00:00 | 00:00:00 | |
| AUTORXJP | 2026-09-04 01:59:25 | 43.32196 | 4.91765 | 196° | 11km/h | 2543m | -3.6m/s | 17.6°C | 32.5% | 766.2hPa | 0V | 00:00:00 | 00:00:00 | 00:00:00 | |
| AUTORXJP | 2026-09-04 01:58:54 | 43.32284 | 4.91761 | 135° | 11km/h | 2653m | -3.6m/s | 16.6°C | 33.9% | 756.3hPa | 0V | 00:00:00 | 00:00:00 | 00:00:00 | |
| AUTORXJP | 2026-09-04 01:58:23 | 43.32346 | 4.91758 | 204° | 13km/h | 2768m | -3.7m/s | 15.8°C | 34.1% | 746.2hPa | 0V | 00:00:00 | 00:00:00 | 00:00:00 | |
| AUTORXJP | 2026-09-04 01:57:52 | 43.32402 | 4.91760 | 262° | 4km/h | 2891m | -4.2m/s | 15.2°C | 32.2% | 735.3hPa | 0V | 00:00:00 | 00:00:00 | 00:00:00 | |
| AUTORXJP | 2026-09-04 01:57:20 | 43.32462 | 4.91756 | 177° | 5km/h | 3014m | -4.2m/s | 14.4°C | 31.0% | 724.7hPa | 0V | 00:00:00 | 00:00:00 | 00:00:00 | |
| AUTORXJP | 2026-09-04 01:56:49 | 43.32519 | 4.91723 | 159° | 5km/h | 3136m | -3.7m/s | 13.5°C | 31.7% | 714.2hPa | 0V | 00:00:00 | 00:00:00 | 00:00:00 | |
| AUTORXJP | 2026-09-04 01:56:18 | 43.32568 | 4.91679 | 157° | 7km/h | 3254m | -4.0m/s | 12.9°C | 28.4% | 704.2hPa | 0V | 00:00:00 | 00:00:00 | 00:00:00 | |
| AUTORXJP | 2026-09-04 01:55:47 | 43.32598 | 4.91651 | 155° | 4km/h | 3382m | -4.2m/s | 11.8°C | 29.0% | 693.5hPa | 0V | 00:00:00 | 00:00:00 | 00:00:00 | |
| AUTORXJP | 2026-09-04 01:55:16 | 43.32629 | 4.91620 | 138° | 5km/h | 3505m | -3.5m/s | 11.1°C | 26.7% | 683.8hPa | 0V | 00:00:00 | 00:00:00 | 00:00:00 | |
| AUTORXJP | 2026-09-04 01:54:45 | 43.32672 | 4.91575 | 139° | 11km/h | 3627m | -2.2m/s | 10.2°C | 29.6% | 673.7hPa | 0V | 00:00:00 | 00:00:00 | 00:00:00 | |
| AUTORXJP | 2026-09-04 01:54:14 | 43.32742 | 4.91502 | 137° | 11km/h | 3752m | -2.0m/s | 9.3°C | 30.8% | 663.6hPa | 0V | 00:00:00 | 00:00:00 | 00:00:00 | |
| AUTORXJP | 2026-09-04 01:53:12 | 43.32973 | 4.91373 | 162° | 20km/h | 4016m | -3.3m/s | 7.0°C | 43.9% | 642.7hPa | 0V | 00:00:00 | 00:00:00 | 00:00:00 | |
| AUTORXJP | 2026-09-04 01:52:41 | 43.33103 | 4.91289 | 142° | 13km/h | 4146m | -5.1m/s | 5.7°C | 46.7% | 632.3hPa | 0V | 00:00:00 | 00:00:00 | 00:00:00 | |
| AUTORXJP | 2026-09-04 01:52:10 | 43.33239 | 4.91207 | 149° | 15km/h | 4281m | -4.0m/s | 4.6°C | 45.5% | 621.9hPa | 0V | 00:00:00 | 00:00:00 | 00:00:00 | |
| AUTORXJP | 2026-09-04 01:51:39 | 43.33386 | 4.91129 | 163° | 24km/h | 4417m | -4.0m/s | 3.4°C | 45.6% | 611.6hPa | 0V | 00:00:00 | 00:00:00 | 00:00:00 | |
| AUTORXJP | 2026-09-04 01:51:08 | 43.33565 | 4.91056 | 166° | 26km/h | 4550m | -3.6m/s | 2.3°C | 46.1% | 601.6hPa | 0V | 00:00:00 | 00:00:00 | 00:00:00 | |
| AUTORXJP | 2026-09-04 01:50:37 | 43.33744 | 4.91010 | 182° | 26km/h | 4684m | -4.9m/s | 1.4°C | 43.3% | 591.7hPa | 0V | 00:00:00 | 00:00:00 | 00:00:00 | |
| AUTORXJP | 2026-09-04 01:50:05 | 43.33957 | 4.90957 | 166° | 31km/h | 4816m | -4.8m/s | 1.2°C | 33.7% | 582.0hPa | 0V | 00:00:00 | 00:00:00 | 00:00:00 | |
| AUTORXJP | 2026-09-04 01:49:34 | 43.34232 | 4.90902 | 170° | 35km/h | 4961m | -3.1m/s | 0.5°C | 30.5% | 571.8hPa | 0V | 00:00:00 | 00:00:00 | 00:00:00 | |
| AUTORXJP | 2026-09-04 01:49:03 | 43.34493 | 4.90828 | 167° | 35km/h | 5097m | -3.6m/s | -0.4°C | 30.4% | 561.9hPa | 0V | 00:00:00 | 00:00:00 | 00:00:00 | |
| AUTORXJP | 2026-09-04 01:48:32 | 43.34739 | 4.90701 | 155° | 35km/h | 5243m | -2.6m/s | -1.6°C | 31.6% | 551.8hPa | 0V | 00:00:00 | 00:00:00 | 00:00:00 | |
| AUTORXJP | 2026-09-04 01:48:01 | 43.34958 | 4.90537 | 144° | 27km/h | 5386m | -5.2m/s | -2.8°C | 31.3% | 541.7hPa | 0V | 00:00:00 | 00:00:00 | 00:00:00 | |
| AUTORXJP | 2026-09-04 01:47:30 | 43.35160 | 4.90353 | 150° | 31km/h | 5534m | -4.7m/s | -3.4°C | 25.9% | 531.7hPa | 0V | 00:00:00 | 00:00:00 | 00:00:00 | |
| AUTORXJP | 2026-09-04 01:46:59 | 43.35361 | 4.90236 | 156° | 29km/h | 5680m | -3.9m/s | -4.3°C | 24.9% | 521.7hPa | 0V | 00:00:00 | 00:00:00 | 00:00:00 | |
| AUTORXJP | 2026-09-04 01:46:28 | 43.35570 | 4.90079 | 143° | 31km/h | 5835m | -3.1m/s | -5.5°C | 25.5% | 511.7hPa | 0V | 00:00:00 | 00:00:00 | 00:00:00 | |
| AUTORXJP | 2026-09-04 01:45:57 | 43.35777 | 4.89911 | 156° | 31km/h | 5987m | -4.1m/s | -7.0°C | 27.1% | 501.8hPa | 0V | 00:00:00 | 00:00:00 | 00:00:00 | |
| AUTORXJP | 2026-09-04 01:45:26 | 43.36002 | 4.89746 | 150° | 35km/h | 6140m | -3.2m/s | -8.3°C | 30.3% | 492.0hPa | 0V | 00:00:00 | 00:00:00 | 00:00:00 | |
| AUTORXJP | 2026-09-04 01:44:55 | 43.36244 | 4.89549 | 152° | 37km/h | 6290m | -3.2m/s | -9.6°C | 31.4% | 482.4hPa | 0V | 00:00:00 | 00:00:00 | 00:00:00 | |
| AUTORXJP | 2026-09-04 01:44:24 | 43.36491 | 4.89357 | 148° | 35km/h | 6443m | -4.0m/s | -11.0°C | 31.0% | 473.0hPa | 0V | 00:00:00 | 00:00:00 | 00:00:00 | |
| AUTORXJP | 2026-09-04 01:43:53 | 43.36735 | 4.89109 | 139° | 37km/h | 6594m | -2.9m/s | -12.4°C | 32.4% | 463.7hPa | 0V | 00:00:00 | 00:00:00 | 00:00:00 | |
| AUTORXJP | 2026-09-04 01:43:21 | 43.36994 | 4.88821 | 141° | 40km/h | 6741m | -4.1m/s | -13.7°C | 35.9% | 454.8hPa | 0V | 00:00:00 | 00:00:00 | 00:00:00 | |
| AUTORXJP | 2026-09-04 01:42:50 | 43.37251 | 4.88531 | 141° | 42km/h | 6893m | -4.6m/s | -15.1°C | 33.8% | 445.8hPa | 0V | 00:00:00 | 00:00:00 | 00:00:00 | |
| AUTORXJP | 2026-09-04 01:42:19 | 43.37471 | 4.88253 | 139° | 38km/h | 7041m | -4.4m/s | -16.1°C | 30.8% | 437.4hPa | 0V | 00:00:00 | 00:00:00 | 00:00:00 | |
| AUTORXJP | 2026-09-04 01:41:48 | 43.37669 | 4.87910 | 122° | 42km/h | 7180m | -3.5m/s | -16.7°C | 28.0% | 429.2hPa | 0V | 00:00:00 | 00:00:00 | 00:00:00 | |
| AUTORXJP | 2026-09-04 01:41:17 | 43.37811 | 4.87547 | 114° | 37km/h | 7322m | -4.0m/s | -17.5°C | 23.8% | 420.9hPa | 0V | 00:00:00 | 00:00:00 | 00:00:00 | |
| AUTORXJP | 2026-09-04 01:40:46 | 43.37919 | 4.87203 | 113° | 37km/h | 7468m | -3.0m/s | -18.3°C | 21.5% | 412.8hPa | 0V | 00:00:00 | 00:00:00 | 00:00:00 | |
| AUTORXJP | 2026-09-04 01:40:15 | 43.38050 | 4.86846 | 122° | 38km/h | 7615m | -3.5m/s | -19.0°C | 19.9% | 404.8hPa | 0V | 00:00:00 | 00:00:00 | 00:00:00 | |
| AUTORXJP | 2026-09-04 01:39:44 | 43.38226 | 4.86449 | 123° | 44km/h | 7760m | -4.7m/s | -19.6°C | 18.1% | 396.8hPa | 0V | 00:00:00 | 00:00:00 | 00:00:00 | |
| AUTORXJP | 2026-09-04 01:39:13 | 43.38403 | 4.86087 | 127° | 38km/h | 7915m | -3.1m/s | -20.4°C | 18.0% | 388.7hPa | 0V | 00:00:00 | 00:00:00 | 00:00:00 | |
| AUTORXJP | 2026-09-04 01:38:42 | 43.38601 | 4.85715 | 125° | 40km/h | 8071m | -3.7m/s | -21.0°C | 17.2% | 380.5hPa | 0V | 00:00:00 | 00:00:00 | 00:00:00 | |
| AUTORXJP | 2026-09-04 01:38:11 | 43.38775 | 4.85364 | 127° | 38km/h | 8231m | -5.2m/s | -22.3°C | 18.6% | 372.2hPa | 0V | 00:00:00 | 00:00:00 | 00:00:00 | |
| AUTORXJP | 2026-09-04 01:37:40 | 43.38943 | 4.85021 | 126° | 37km/h | 8399m | -5.8m/s | -23.8°C | 19.6% | 363.8hPa | 0V | 00:00:00 | 00:00:00 | 00:00:00 | |
| AUTORXJP | 2026-09-04 01:37:08 | 43.39115 | 4.84681 | 124° | 40km/h | 8573m | -5.2m/s | -25.4°C | 20.8% | 355.2hPa | 0V | 00:00:00 | 00:00:00 | 00:00:00 | |
| AUTORXJP | 2026-09-04 01:36:37 | 43.39284 | 4.84339 | 121° | 38km/h | 8748m | -3.9m/s | -26.9°C | 20.5% | 346.7hPa | 0V | 00:00:00 | 00:00:00 | 00:00:00 | |
| AUTORXJP | 2026-09-04 01:35:35 | 43.39619 | 4.83663 | 126° | 38km/h | 9116m | -4.7m/s | -29.9°C | 23.4% | 329.4hPa | 0V | 00:00:00 | 00:00:00 | 00:00:00 | |
| AUTORXJP | 2026-09-04 01:35:04 | 43.39811 | 4.83348 | 137° | 37km/h | 9296m | -4.7m/s | -31.4°C | 25.4% | 321.0hPa | 0V | 00:00:00 | 00:00:00 | 00:00:00 | |
| AUTORXJP | 2026-09-04 01:34:33 | 43.40011 | 4.83055 | 126° | 33km/h | 9483m | -4.2m/s | -32.8°C | 22.1% | 312.7hPa | 0V | 00:00:00 | 00:00:00 | 00:00:00 | |
| AUTORXJP | 2026-09-04 01:34:02 | 43.40138 | 4.82747 | 120° | 29km/h | 9665m | -5.3m/s | -34.2°C | 20.2% | 304.6hPa | 0V | 00:00:00 | 00:00:00 | 00:00:00 | |
| AUTORXJP | 2026-09-04 01:33:31 | 43.40276 | 4.82458 | 124° | 35km/h | 9851m | -4.7m/s | -35.7°C | 20.2% | 296.7hPa | 0V | 00:00:00 | 00:00:00 | 00:00:00 | |
| AUTORXJP | 2026-09-04 01:33:00 | 43.40457 | 4.82148 | 135° | 40km/h | 10032m | -4.2m/s | -37.2°C | 20.1% | 288.9hPa | 0V | 00:00:00 | 00:00:00 | 00:00:00 | |
| AUTORXJP | 2026-09-04 01:32:29 | 43.40679 | 4.81829 | 139° | 38km/h | 10215m | -4.7m/s | -38.5°C | 21.4% | 281.3hPa | 0V | 00:00:00 | 00:00:00 | 00:00:00 | |
| AUTORXJP | 2026-09-04 01:31:58 | 43.40924 | 4.81572 | 145° | 40km/h | 10394m | -5.9m/s | -40.0°C | 23.8% | 274.0hPa | 0V | 00:00:00 | 00:00:00 | 00:00:00 | |
| AUTORXJP | 2026-09-04 01:31:27 | 43.41182 | 4.81310 | 148° | 42km/h | 10573m | -4.8m/s | -41.6°C | 25.7% | 266.8hPa | 0V | 00:00:00 | 00:00:00 | 00:00:00 | |
| AUTORXJP | 2026-09-04 01:30:55 | 43.41460 | 4.81039 | 143° | 44km/h | 10752m | -5.1m/s | -43.2°C | 29.1% | 259.9hPa | 0V | 00:00:00 | 00:00:00 | 00:00:00 | |
| AUTORXJP | 2026-09-04 01:30:24 | 43.41731 | 4.80756 | 139° | 40km/h | 10934m | -3.1m/s | -44.8°C | 33.1% | 253.0hPa | 0V | 00:00:00 | 00:00:00 | 00:00:00 | |
| AUTORXJP | 2026-09-04 01:29:53 | 43.42001 | 4.80440 | 136° | 44km/h | 11112m | -4.6m/s | -46.5°C | 36.1% | 246.2hPa | 0V | 00:00:00 | 00:00:00 | 00:00:00 | |
| AUTORXJP | 2026-09-04 01:29:22 | 43.42291 | 4.80120 | 144° | 49km/h | 11294m | -4.2m/s | -48.0°C | 37.6% | 239.5hPa | 0V | 00:00:00 | 00:00:00 | 00:00:00 | |
| AUTORXJP | 2026-09-04 01:28:52 | 43.42633 | 4.79826 | 148° | 51km/h | 11482m | -5.3m/s | -49.6°C | 39.8% | 232.7hPa | 0V | 00:00:00 | 00:00:00 | 00:00:00 | |
| AUTORXJP | 2026-09-04 01:27:49 | 43.43367 | 4.79247 | 154° | 53km/h | 11857m | -5.7m/s | -52.7°C | 42.3% | 219.6hPa | 0V | 00:00:00 | 00:00:00 | 00:00:00 | |
| AUTORXJP | 2026-09-04 01:27:18 | 43.43774 | 4.79003 | 155° | 57km/h | 12051m | -4.9m/s | -54.4°C | 42.2% | 213.1hPa | 0V | 00:00:00 | 00:00:00 | 00:00:00 | |
| AUTORXJP | 2026-09-04 01:26:47 | 43.44202 | 4.78744 | 158° | 58km/h | 12249m | -5.1m/s | -55.7°C | 42.3% | 206.6hPa | 0V | 00:00:00 | 00:00:00 | 00:00:00 | |
| AUTORXJP | 2026-09-04 01:26:16 | 43.44663 | 4.78467 | 159° | 64km/h | 12448m | -6.0m/s | -57.2°C | 42.6% | 200.2hPa | 0V | 00:00:00 | 00:00:00 | 00:00:00 | |
| AUTORXJP | 2026-09-04 01:25:45 | 43.45147 | 4.78202 | 156° | 66km/h | 12656m | -5.0m/s | -58.8°C | 40.3% | 193.6hPa | 0V | 00:00:00 | 00:00:00 | 00:00:00 | |
| AUTORXJP | 2026-09-04 01:25:14 | 43.45642 | 4.77914 | 155° | 68km/h | 12878m | -5.6m/s | -60.6°C | 35.6% | 186.9hPa | 0V | 00:00:00 | 00:00:00 | 00:00:00 | |
| AUTORXJP | 2026-09-04 01:24:43 | 43.46141 | 4.77624 | 155° | 69km/h | 13106m | -7.4m/s | -62.0°C | 30.7% | 180.2hPa | 0V | 00:00:00 | 00:00:00 | 00:00:00 | |
| AUTORXJP | 2026-09-04 01:24:12 | 43.46638 | 4.77361 | 160° | 66km/h | 13338m | -6.1m/s | -63.6°C | 25.6% | 173.5hPa | 0V | 00:00:00 | 00:00:00 | 00:00:00 | |
| AUTORXJP | 2026-09-04 01:23:40 | 43.47121 | 4.77056 | 154° | 69km/h | 13577m | -7.1m/s | -64.6°C | 21.1% | 166.8hPa | 0V | 00:00:00 | 00:00:00 | 00:00:00 | |
| AUTORXJP | 2026-09-04 01:23:09 | 43.47592 | 4.76687 | 149° | 66km/h | 13819m | -6.2m/s | -66.0°C | 16.9% | 160.3hPa | 0V | 00:00:00 | 00:00:00 | 00:00:00 | |
| AUTORXJP | 2026-09-04 01:22:38 | 43.48065 | 4.76350 | 157° | 66km/h | 14064m | -6.4m/s | -66.9°C | 13.9% | 153.9hPa | 0V | 00:00:00 | 00:00:00 | 00:00:00 | |
| AUTORXJP | 2026-09-04 01:22:07 | 43.48461 | 4.75930 | 136° | 66km/h | 14319m | -6.9m/s | -66.4°C | 9.0% | 147.5hPa | 0V | 00:00:00 | 00:00:00 | 00:00:00 | |
| AUTORXJP | 2026-09-04 01:21:36 | 43.48866 | 4.75411 | 138° | 69km/h | 14563m | -7.9m/s | -67.1°C | 5.4% | 141.7hPa | 0V | 00:00:00 | 00:00:00 | 00:00:00 | |
| AUTORXJP | 2026-09-04 01:21:05 | 43.49256 | 4.74978 | 141° | 53km/h | 14810m | -6.2m/s | -66.2°C | 2.9% | 136.0hPa | 0V | 00:00:00 | 00:00:00 | 00:00:00 | |
| AUTORXJP | 2026-09-04 01:20:34 | 43.49564 | 4.74508 | 138° | 64km/h | 15065m | -8.5m/s | -65.7°C | 1.2% | 130.4hPa | 0V | 00:00:00 | 00:00:00 | 00:00:00 | |
| AUTORXJP | 2026-09-04 01:20:03 | 43.49907 | 4.74053 | 139° | 60km/h | 15332m | -8.4m/s | -64.7°C | 0.2% | 124.8hPa | 0V | 00:00:00 | 00:00:00 | 00:00:00 | |
| AUTORXJP | 2026-09-04 01:19:01 | 43.50432 | 4.73433 | 135° | 37km/h | 15907m | -8.5m/s | -63.1°C | 0.0% | 113.6hPa | 0V | 00:00:00 | 00:00:00 | 00:00:00 | |
| AUTORXJP | 2026-09-04 01:18:30 | 43.50617 | 4.73214 | 136° | 27km/h | 16198m | -9.9m/s | -62.7°C | 0.0% | 108.3hPa | 0V | 00:00:00 | 00:00:00 | 00:00:00 | |
| AUTORXJP | 2026-09-04 01:17:59 | 43.50823 | 4.72943 | 150° | 38km/h | 16494m | -8.8m/s | -62.5°C | 0.0% | 103.2hPa | 0V | 00:00:00 | 00:00:00 | 00:00:00 | |
| AUTORXJP | 2026-09-04 01:17:27 | 43.51026 | 4.72827 | 129° | 18km/h | 16793m | -8.2m/s | -61.2°C | 0.0% | 98.3hPa | 0V | 00:00:00 | 00:00:00 | 00:00:00 | |
| AUTORXJP | 2026-09-04 01:16:56 | 43.51082 | 4.72586 | 107° | 16km/h | 17098m | -7.4m/s | -62.2°C | 0.0% | 93.5hPa | 0V | 00:00:00 | 00:00:00 | 00:00:00 | |
| AUTORXJP | 2026-09-04 01:16:25 | 43.51126 | 4.72333 | 88° | 35km/h | 17426m | -9.3m/s | -61.2°C | 0.0% | 88.7hPa | 0V | 00:00:00 | 00:00:00 | 00:00:00 | |
| AUTORXJP | 2026-09-04 01:15:54 | 43.51216 | 4.71824 | 122° | 57km/h | 17753m | -11.0m/s | -60.7°C | 0.0% | 84.1hPa | 0V | 00:00:00 | 00:00:00 | 00:00:00 | |
| AUTORXJP | 2026-09-04 01:15:23 | 43.51514 | 4.71544 | 181° | 31km/h | 18093m | -10.2m/s | -59.7°C | 0.0% | 79.6hPa | 0V | 00:00:00 | 00:00:00 | 00:00:00 | |
| AUTORXJP | 2026-09-04 01:14:52 | 43.51685 | 4.71528 | 125° | 24km/h | 18447m | -8.8m/s | -59.7°C | 0.0% | 75.2hPa | 0V | 00:00:00 | 00:00:00 | 00:00:00 | |
| AUTORXJP | 2026-09-04 01:14:21 | 43.51846 | 4.71320 | 153° | 16km/h | 18799m | -10.0m/s | -58.5°C | 0.0% | 71.0hPa | 0V | 00:00:00 | 00:00:00 | 00:00:00 | |
| AUTORXJP | 2026-09-04 01:13:50 | 43.51846 | 4.71143 | 91° | 27km/h | 19174m | -10.8m/s | -59.3°C | 0.0% | 66.8hPa | 0V | 00:00:00 | 00:00:00 | 00:00:00 | |
| AUTORXJP | 2026-09-04 01:13:19 | 43.51955 | 4.70930 | 142° | 22km/h | 19569m | -11.7m/s | -59.3°C | 0.0% | 62.7hPa | 0V | 00:00:00 | 00:00:00 | 00:00:00 | |
| AUTORXJP | 2026-09-04 01:12:48 | 43.52109 | 4.70753 | 147° | 33km/h | 19981m | -11.8m/s | -58.3°C | 0.0% | 58.7hPa | 0V | 00:00:00 | 00:00:00 | 00:00:00 | |
| AUTORXJP | 2026-09-04 01:12:17 | 43.52269 | 4.70769 | 197° | 11km/h | 20411m | -13.0m/s | -57.8°C | 0.0% | 54.8hPa | 0V | 00:00:00 | 00:00:00 | 00:00:00 | |
| AUTORXJP | 2026-09-04 01:11:46 | 43.52328 | 4.70796 | 199° | 15km/h | 20852m | -12.7m/s | -58.1°C | 0.0% | 51.0hPa | 0V | 00:00:00 | 00:00:00 | 00:00:00 | |
| AUTORXJP | 2026-09-04 01:11:15 | 43.52426 | 4.70836 | 253° | 13km/h | 21313m | -13.6m/s | -56.2°C | 0.0% | 47.4hPa | 0V | 00:00:00 | 00:00:00 | 00:00:00 | |
| AUTORXJP | 2026-09-04 01:10:43 | 43.52445 | 4.70954 | 242° | 4km/h | 21778m | -14.6m/s | -56.6°C | 0.0% | 44.0hPa | 0V | 00:00:00 | 00:00:00 | 00:00:00 | |
| AUTORXJP | 2026-09-04 01:10:12 | 43.52467 | 4.71032 | 277° | 16km/h | 22254m | -14.5m/s | -55.2°C | 0.0% | 40.8hPa | 0V | 00:00:00 | 00:00:00 | 00:00:00 | |
| AUTORXJP | 2026-09-04 01:09:41 | 43.52417 | 4.71106 | 353° | 0km/h | 22745m | -14.9m/s | -55.2°C | 0.0% | 37.7hPa | 0V | 00:00:00 | 00:00:00 | 00:00:00 | |
| AUTORXJP | 2026-09-04 01:08:39 | 43.52482 | 4.71179 | 248° | 20km/h | 23786m | -16.9m/s | -52.0°C | 0.0% | 31.9hPa | 0V | 00:00:00 | 00:00:00 | 00:00:00 | |
| AUTORXJP | 2026-09-04 01:08:08 | 43.52509 | 4.71354 | 277° | 13km/h | 24358m | -18.6m/s | -52.7°C | 0.0% | 29.2hPa | 0V | 00:00:00 | 00:00:00 | 00:00:00 | |
| AUTORXJP | 2026-09-04 01:07:37 | 43.52607 | 4.71496 | 250° | 24km/h | 24961m | -18.9m/s | -50.7°C | 0.0% | 26.5hPa | 0V | 00:00:00 | 00:00:00 | 00:00:00 | |
| AUTORXJP | 2026-09-04 01:07:06 | 43.52560 | 4.71747 | 153° | 15km/h | 25557m | -15.7m/s | -50.3°C | 0.0% | 24.1hPa | 0V | 00:00:00 | 00:00:00 | 00:00:00 | |
| AUTORXJP | 2026-09-04 01:06:35 | 43.52510 | 4.71814 | 306° | 24km/h | 26172m | -18.8m/s | -49.6°C | 0.0% | 21.9hPa | 0V | 00:00:00 | 00:00:00 | 00:00:00 | |
| AUTORXJP | 2026-09-04 01:06:04 | 43.52458 | 4.71836 | 55° | 24km/h | 26816m | -17.3m/s | -49.6°C | 0.0% | 19.8hPa | 0V | 00:00:00 | 00:00:00 | 00:00:00 | |
| AUTORXJP | 2026-09-04 01:05:33 | 43.52430 | 4.71794 | 154° | 31km/h | 27528m | -22.4m/s | -48.2°C | 0.0% | 17.6hPa | 0V | 00:00:00 | 00:00:00 | 00:00:00 | |
| AUTORXJP | 2026-09-04 01:05:02 | 43.52360 | 4.71829 | 78° | 15km/h | 28259m | -25.2m/s | -45.6°C | 0.0% | 15.7hPa | 0V | 00:00:00 | 00:00:00 | 00:00:00 | |
| AUTORXJP | 2026-09-04 01:04:31 | 43.52328 | 4.71887 | 44° | 7km/h | 29322m | -38.6m/s | -44.4°C | 0.0% | 13.3hPa | 0V | 00:00:00 | 00:00:00 | 00:00:00 | |
| AUTORXJP | 2026-09-04 01:04:00 | 43.52401 | 4.71863 | 214° | 18km/h | 30389m | -28.9m/s | -41.4°C | 0.0% | 11.2hPa | 0V | 00:00:00 | 00:00:00 | 00:00:00 | |
| AUTORXJP | 2026-09-04 01:03:28 | 43.52471 | 4.72010 | 235° | 11km/h | 31487m | -9.1m/s | -41.5°C | 0.0% | 9.4hPa | 0V | 00:00:00 | 00:00:00 | 00:00:00 | |
| AUTORXJP | 2026-09-04 01:02:57 | 43.52574 | 4.72149 | 304° | 9km/h | 31329m | 6.6m/s | -41.5°C | 0.0% | 9.7hPa | 0V | 00:00:00 | 00:00:00 | 00:00:00 | |
| AUTORXJP | 2026-09-04 01:02:26 | 43.52642 | 4.72269 | 334° | 22km/h | 31159m | 4.4m/s | -41.5°C | 0.0% | 9.9hPa | 0V | 00:00:00 | 00:00:00 | 00:00:00 | |
| AUTORXJP | 2026-09-04 01:01:55 | 43.52712 | 4.72396 | 277° | 55km/h | 30995m | 8.3m/s | -42.0°C | 0.0% | 10.2hPa | 0V | 00:00:00 | 00:00:00 | 00:00:00 | |
| AUTORXJP | 2026-09-04 01:01:25 | 43.52744 | 4.72554 | 280° | 26km/h | 30830m | 6.4m/s | -42.1°C | 0.0% | 10.5hPa | 0V | 00:00:00 | 00:00:00 | 00:00:00 | |
| AUTORXJP | 2026-09-04 01:00:53 | 43.52788 | 4.72771 | 269° | 22km/h | 30664m | 7.1m/s | -42.2°C | 0.0% | 10.8hPa | 0V | 00:00:00 | 00:00:00 | 00:00:00 | |
| AUTORXJP | 2026-09-04 01:00:22 | 43.52885 | 4.72943 | 235° | 33km/h | 30501m | 5.9m/s | -42.7°C | 0.0% | 11.0hPa | 0V | 00:00:00 | 00:00:00 | 00:00:00 | |
| AUTORXJP | 2026-09-04 00:59:51 | 43.53087 | 4.72971 | 193° | 31km/h | 30334m | 5.0m/s | -43.2°C | 0.0% | 11.3hPa | 0V | 00:00:00 | 00:00:00 | 00:00:00 | |
| AUTORXJP | 2026-09-04 00:59:20 | 43.53236 | 4.72958 | 235° | 33km/h | 30164m | 5.6m/s | -43.5°C | 0.0% | 11.7hPa | 0V | 00:00:00 | 00:00:00 | 00:00:00 | |
| AUTORXJP | 2026-09-04 00:58:49 | 43.53338 | 4.72932 | 318° | 15km/h | 29983m | 6.0m/s | -43.9°C | 0.0% | 12.0hPa | 0V | 00:00:00 | 00:00:00 | 00:00:00 | |
| AUTORXJP | 2026-09-04 00:58:18 | 43.53320 | 4.72918 | 118° | 16km/h | 29797m | 5.3m/s | -43.5°C | 0.0% | 12.3hPa | 0V | 00:00:00 | 00:00:00 | 00:00:00 | |
| AUTORXJP | 2026-09-04 00:57:47 | 43.53277 | 4.72899 | 132° | 24km/h | 29616m | 5.5m/s | -44.6°C | 0.0% | 12.7hPa | 0V | 00:00:00 | 00:00:00 | 00:00:00 | |
| AUTORXJP | 2026-09-04 00:57:16 | 43.53165 | 4.72887 | 5° | 37km/h | 29440m | 6.3m/s | -44.9°C | 0.0% | 13.1hPa | 0V | 00:00:00 | 00:00:00 | 00:00:00 | |
| AUTORXJP | 2026-09-04 00:56:44 | 43.53023 | 4.72907 | 13° | 16km/h | 29265m | 6.3m/s | -45.0°C | 0.0% | 13.4hPa | 0V | 00:00:00 | 00:00:00 | 00:00:00 | |
| AUTORXJP | 2026-09-04 00:56:13 | 43.52859 | 4.73010 | 342° | 22km/h | 29098m | 6.3m/s | -44.9°C | 0.0% | 13.8hPa | 0V | 00:00:00 | 00:00:00 | 00:00:00 | |
| AUTORXJP | 2026-09-04 00:55:42 | 43.52755 | 4.73121 | 333° | 29km/h | 28936m | 3.7m/s | -45.1°C | 0.0% | 14.2hPa | 0V | 00:00:00 | 00:00:00 | 00:00:00 | |
| AUTORXJP | 2026-09-04 00:55:11 | 43.52643 | 4.73198 | 270° | 11km/h | 28767m | 3.5m/s | -44.8°C | 0.0% | 14.6hPa | 0V | 00:00:00 | 00:00:00 | 00:00:00 | |
| AUTORXJP | 2026-09-04 00:54:40 | 43.52613 | 4.73270 | 9° | 18km/h | 28597m | 2.8m/s | -45.7°C | 0.0% | 14.9hPa | 0V | 00:00:00 | 00:00:00 | 00:00:00 | |
| AUTORXJP | 2026-09-04 00:54:09 | 43.52616 | 4.73348 | 247° | 13km/h | 28420m | 5.7m/s | -46.1°C | 0.0% | 15.4hPa | 0V | 00:00:00 | 00:00:00 | 00:00:00 | |
| AUTORXJP | 2026-09-04 00:53:38 | 43.52532 | 4.73375 | 355° | 26km/h | 28246m | 5.8m/s | -47.9°C | 0.0% | 15.8hPa | 0V | 00:00:00 | 00:00:00 | 00:00:00 | |
| AUTORXJP | 2026-09-04 00:53:07 | 43.52421 | 4.73464 | 321° | 31km/h | 28067m | 5.4m/s | -47.6°C | 0.0% | 16.3hPa | 0V | 00:00:00 | 00:00:00 | 00:00:00 | |
| AUTORXJP | 2026-09-04 00:52:36 | 43.52369 | 4.73490 | 202° | 4km/h | 27893m | 7.3m/s | -47.4°C | 0.0% | 16.7hPa | 0V | 00:00:00 | 00:00:00 | 00:00:00 | |
| AUTORXJP | 2026-09-04 00:52:05 | 43.52313 | 4.73542 | 1° | 11km/h | 27718m | 5.3m/s | -47.9°C | 0.0% | 17.2hPa | 0V | 00:00:00 | 00:00:00 | 00:00:00 | |
| AUTORXJP | 2026-09-04 00:51:34 | 43.52295 | 4.73562 | 147° | 13km/h | 27545m | 5.3m/s | -48.7°C | 0.0% | 17.7hPa | 0V | 00:00:00 | 00:00:00 | 00:00:00 | |
| AUTORXJP | 2026-09-04 00:51:03 | 43.52328 | 4.73494 | 68° | 9km/h | 27373m | 5.5m/s | -49.2°C | 0.0% | 18.2hPa | 0V | 00:00:00 | 00:00:00 | 00:00:00 | |
| AUTORXJP | 2026-09-04 00:50:31 | 43.52307 | 4.73447 | 55° | 9km/h | 27188m | 5.8m/s | -49.3°C | 0.0% | 18.7hPa | 0V | 00:00:00 | 00:00:00 | 00:00:00 | |
| AUTORXJP | 2026-09-04 00:50:00 | 43.52309 | 4.73362 | 245° | 9km/h | 27011m | 6.7m/s | -49.6°C | 0.0% | 19.2hPa | 0V | 00:00:00 | 00:00:00 | 00:00:00 | |
| AUTORXJP | 2026-09-04 00:49:29 | 43.52252 | 4.73333 | 41° | 20km/h | 26832m | 5.1m/s | -50.3°C | 0.0% | 19.8hPa | 0V | 00:00:00 | 00:00:00 | 00:00:00 | |
| AUTORXJP | 2026-09-04 00:48:58 | 43.52172 | 4.73293 | 330° | 22km/h | 26657m | 4.5m/s | -51.2°C | 0.0% | 20.4hPa | 0V | 00:00:00 | 00:00:00 | 00:00:00 | |
| AUTORXJP | 2026-09-04 00:48:27 | 43.52066 | 4.73401 | 320° | 20km/h | 26480m | 5.7m/s | -50.5°C | 0.0% | 20.9hPa | 0V | 00:00:00 | 00:00:00 | 00:00:00 | |
| AUTORXJP | 2026-09-04 00:47:56 | 43.52007 | 4.73436 | 48° | 24km/h | 26305m | 5.5m/s | -49.8°C | 0.0% | 21.5hPa | 0V | 00:00:00 | 00:00:00 | 00:00:00 | |
| AUTORXJP | 2026-09-04 00:47:25 | 43.51911 | 4.73454 | 300° | 35km/h | 26136m | 4.8m/s | -49.3°C | 0.0% | 22.1hPa | 0V | 00:00:00 | 00:00:00 | 00:00:00 | |
| AUTORXJP | 2026-09-04 00:46:54 | 43.51812 | 4.73552 | 33° | 18km/h | 25965m | 4.6m/s | -48.6°C | 0.0% | 22.7hPa | 0V | 00:00:00 | 00:00:00 | 00:00:00 | |
| AUTORXJP | 2026-09-04 00:46:23 | 43.51819 | 4.73674 | 210° | 7km/h | 25795m | 6.1m/s | -49.3°C | 0.0% | 23.3hPa | 0V | 00:00:00 | 00:00:00 | 00:00:00 | |
| AUTORXJP | 2026-09-04 00:45:52 | 43.51801 | 4.73801 | 297° | 13km/h | 25625m | 5.2m/s | -49.7°C | 0.0% | 24.0hPa | 0V | 00:00:00 | 00:00:00 | 00:00:00 | |
| AUTORXJP | 2026-09-04 00:45:21 | 43.51752 | 4.73920 | 312° | 20km/h | 25457m | 5.9m/s | -50.0°C | 0.0% | 24.6hPa | 0V | 00:00:00 | 00:00:00 | 00:00:00 | |
| AUTORXJP | 2026-09-04 00:44:50 | 43.51649 | 4.74041 | 288° | 24km/h | 25290m | 6.2m/s | -50.9°C | 0.0% | 25.2hPa | 0V | 00:00:00 | 00:00:00 | 00:00:00 | |
| AUTORXJP | 2026-09-04 00:44:19 | 43.51572 | 4.74296 | 274° | 26km/h | 25123m | 3.8m/s | -50.8°C | 0.0% | 25.9hPa | 0V | 00:00:00 | 00:00:00 | 00:00:00 | |
| AUTORXJP | 2026-09-04 00:43:48 | 43.51613 | 4.74565 | 242° | 33km/h | 24952m | 6.2m/s | -50.7°C | 0.0% | 26.6hPa | 0V | 00:00:00 | 00:00:00 | 00:00:00 | |
| AUTORXJP | 2026-09-04 00:43:17 | 43.51777 | 4.74763 | 195° | 16km/h | 24785m | 5.8m/s | -51.5°C | 0.0% | 27.4hPa | 0V | 00:00:00 | 00:00:00 | 00:00:00 | |
| AUTORXJP | 2026-09-04 00:42:45 | 43.51865 | 4.74831 | 171° | 16km/h | 24623m | 4.7m/s | -52.3°C | 0.0% | 28.1hPa | 0V | 00:00:00 | 00:00:00 | 00:00:00 | |
| AUTORXJP | 2026-09-04 00:42:14 | 43.51844 | 4.74850 | 320° | 15km/h | 24461m | 5.7m/s | -52.9°C | 0.0% | 28.8hPa | 0V | 00:00:00 | 00:00:00 | 00:00:00 | |
| AUTORXJP | 2026-09-04 00:41:43 | 43.51802 | 4.74958 | 262° | 18km/h | 24298m | 4.6m/s | -52.8°C | 0.0% | 29.6hPa | 0V | 00:00:00 | 00:00:00 | 00:00:00 | |
| AUTORXJP | 2026-09-04 00:41:12 | 43.51811 | 4.75116 | 265° | 22km/h | 24137m | 5.2m/s | -52.5°C | 0.0% | 30.3hPa | 0V | 00:00:00 | 00:00:00 | 00:00:00 | |
| AUTORXJP | 2026-09-04 00:40:41 | 43.51856 | 4.75259 | 220° | 11km/h | 23975m | 5.7m/s | -52.6°C | 0.0% | 31.1hPa | 0V | 00:00:00 | 00:00:00 | 00:00:00 | |
| AUTORXJP | 2026-09-04 00:40:10 | 43.51867 | 4.75470 | 247° | 26km/h | 23813m | 3.8m/s | -52.3°C | 0.0% | 31.9hPa | 0V | 00:00:00 | 00:00:00 | 00:00:00 | |
| AUTORXJP | 2026-09-04 00:39:39 | 43.51974 | 4.75541 | 174° | 15km/h | 23648m | 4.8m/s | -52.9°C | 0.0% | 32.8hPa | 0V | 00:00:00 | 00:00:00 | 00:00:00 | |
| AUTORXJP | 2026-09-04 00:39:08 | 43.52032 | 4.75499 | 84° | 4km/h | 23487m | 5.8m/s | -53.8°C | 0.0% | 33.6hPa | 0V | 00:00:00 | 00:00:00 | 00:00:00 | |
| AUTORXJP | 2026-09-04 00:38:37 | 43.52004 | 4.75547 | 263° | 7km/h | 23328m | 6.3m/s | -55.4°C | 0.0% | 34.5hPa | 0V | 00:00:00 | 00:00:00 | 00:00:00 | |
| AUTORXJP | 2026-09-04 00:38:06 | 43.51987 | 4.75672 | 240° | 15km/h | 23173m | 5.5m/s | -55.4°C | 0.0% | 35.3hPa | 0V | 00:00:00 | 00:00:00 | 00:00:00 | |
| AUTORXJP | 2026-09-04 00:37:34 | 43.51975 | 4.75778 | 299° | 9km/h | 23013m | 6.1m/s | -54.5°C | 0.0% | 36.2hPa | 0V | 00:00:00 | 00:00:00 | 00:00:00 | |
| AUTORXJP | 2026-09-04 00:37:03 | 43.51998 | 4.75819 | 168° | 9km/h | 22851m | 5.4m/s | -55.1°C | 0.0% | 37.2hPa | 0V | 00:00:00 | 00:00:00 | 00:00:00 | |
| AUTORXJP | 2026-09-04 00:36:32 | 43.51984 | 4.75842 | 309° | 7km/h | 22693m | 5.6m/s | -54.9°C | 0.0% | 38.1hPa | 0V | 00:00:00 | 00:00:00 | 00:00:00 | |
| AUTORXJP | 2026-09-04 00:36:01 | 43.51955 | 4.75924 | 280° | 13km/h | 22535m | 6.4m/s | -55.2°C | 0.0% | 39.1hPa | 0V | 00:00:00 | 00:00:00 | 00:00:00 | |
| AUTORXJP | 2026-09-04 00:35:30 | 43.51912 | 4.75991 | 296° | 2km/h | 22375m | 5.8m/s | -55.2°C | 0.0% | 40.1hPa | 0V | 00:00:00 | 00:00:00 | 00:00:00 | |
| AUTORXJP | 2026-09-04 00:34:59 | 43.51949 | 4.76112 | 228° | 22km/h | 22217m | 4.6m/s | -55.9°C | 0.0% | 41.1hPa | 0V | 00:00:00 | 00:00:00 | 00:00:00 | |
| AUTORXJP | 2026-09-04 00:34:28 | 43.52034 | 4.76189 | 92° | 7km/h | 22060m | 3.3m/s | -57.2°C | 0.0% | 42.2hPa | 0V | 00:00:00 | 00:00:00 | 00:00:00 | |
| AUTORXJP | 2026-09-04 00:33:57 | 43.52113 | 4.76186 | 195° | 7km/h | 21908m | 5.9m/s | -57.9°C | 0.0% | 43.2hPa | 0V | 00:00:00 | 00:00:00 | 00:00:00 | |
| AUTORXJP | 2026-09-04 00:33:26 | 43.52152 | 4.76205 | 245° | 4km/h | 21749m | 3.4m/s | -57.8°C | 0.0% | 44.4hPa | 0V | 00:00:00 | 00:00:00 | 00:00:00 | |
| AUTORXJP | 2026-09-04 00:32:24 | 43.52323 | 4.76599 | 241° | 26km/h | 21423m | 5.0m/s | -56.8°C | 0.0% | 46.7hPa | 0V | 00:00:00 | 00:00:00 | 00:00:00 | |
| AUTORXJP | 2026-09-04 00:31:52 | 43.52387 | 4.76764 | 53° | 0km/h | 21266m | 4.7m/s | -56.6°C | 0.0% | 47.9hPa | 0V | 00:00:00 | 00:00:00 | 00:00:00 | |
| AUTORXJP | 2026-09-04 00:31:21 | 43.52503 | 4.76848 | 232° | 24km/h | 21113m | 3.5m/s | -56.9°C | 0.0% | 49.1hPa | 0V | 00:00:00 | 00:00:00 | 00:00:00 | |
| AUTORXJP | 2026-09-04 00:30:50 | 43.52660 | 4.76894 | 167° | 18km/h | 20962m | 4.4m/s | -57.6°C | 0.0% | 50.3hPa | 0V | 00:00:00 | 00:00:00 | 00:00:00 | |
| AUTORXJP | 2026-09-04 00:30:19 | 43.52777 | 4.76899 | 196° | 16km/h | 20814m | 3.4m/s | -58.3°C | 0.0% | 51.5hPa | 0V | 00:00:00 | 00:00:00 | 00:00:00 | |
| AUTORXJP | 2026-09-04 00:29:48 | 43.52864 | 4.76892 | 88° | 2km/h | 20668m | 5.0m/s | -58.8°C | 0.0% | 52.7hPa | 0V | 00:00:00 | 00:00:00 | 00:00:00 | |
| AUTORXJP | 2026-09-04 00:29:18 | 43.52907 | 4.76914 | 232° | 15km/h | 20518m | 4.6m/s | -58.3°C | 0.0% | 54.0hPa | 0V | 00:00:00 | 00:00:00 | 00:00:00 | |
| AUTORXJP | 2026-09-04 00:28:46 | 43.52990 | 4.76926 | 199° | 13km/h | 20366m | 4.2m/s | -57.9°C | 0.0% | 55.4hPa | 0V | 00:00:00 | 00:00:00 | 00:00:00 | |
| AUTORXJP | 2026-09-04 00:28:15 | 43.53127 | 4.76949 | 182° | 13km/h | 20215m | 3.9m/s | -57.7°C | 0.0% | 56.7hPa | 0V | 00:00:00 | 00:00:00 | 00:00:00 | |
| AUTORXJP | 2026-09-04 00:27:44 | 43.53262 | 4.76889 | 158° | 20km/h | 20064m | 4.0m/s | -57.7°C | 0.0% | 58.1hPa | 0V | 00:00:00 | 00:00:00 | 00:00:00 | |
| AUTORXJP | 2026-09-04 00:27:13 | 43.53439 | 4.76651 | 125° | 27km/h | 19917m | 5.5m/s | -58.7°C | 0.0% | 59.5hPa | 0V | 00:00:00 | 00:00:00 | 00:00:00 | |
| AUTORXJP | 2026-09-04 00:26:42 | 43.53545 | 4.76379 | 93° | 20km/h | 19768m | 5.1m/s | -58.4°C | 0.0% | 60.9hPa | 0V | 00:00:00 | 00:00:00 | 00:00:00 | |
| AUTORXJP | 2026-09-04 00:26:11 | 43.53639 | 4.76167 | 137° | 27km/h | 19623m | 4.2m/s | -59.1°C | 0.0% | 62.4hPa | 0V | 00:00:00 | 00:00:00 | 00:00:00 | |
| AUTORXJP | 2026-09-04 00:25:40 | 43.53754 | 4.75976 | 91° | 24km/h | 19470m | 3.6m/s | -58.8°C | 0.0% | 63.9hPa | 0V | 00:00:00 | 00:00:00 | 00:00:00 | |
| AUTORXJP | 2026-09-04 00:25:09 | 43.53816 | 4.75835 | 132° | 20km/h | 19323m | 6.2m/s | -59.0°C | 0.0% | 65.4hPa | 0V | 00:00:00 | 00:00:00 | 00:00:00 | |
| AUTORXJP | 2026-09-04 00:24:38 | 43.53953 | 4.75643 | 107° | 26km/h | 19169m | 3.8m/s | -59.3°C | 0.0% | 67.0hPa | 0V | 00:00:00 | 00:00:00 | 00:00:00 | |
| AUTORXJP | 2026-09-04 00:24:06 | 43.53996 | 4.75472 | 78° | 4km/h | 19019m | 4.4m/s | -58.8°C | 0.0% | 68.7hPa | 0V | 00:00:00 | 00:00:00 | 00:00:00 | |
| AUTORXJP | 2026-09-04 00:23:35 | 43.54078 | 4.75430 | 204° | 18km/h | 18862m | 4.9m/s | -59.0°C | 0.2% | 70.4hPa | 0V | 00:00:00 | 00:00:00 | 00:00:00 | |
| AUTORXJP | 2026-09-04 00:23:04 | 43.54295 | 4.75370 | 150° | 29km/h | 18716m | 4.3m/s | -59.5°C | 0.3% | 72.1hPa | 0V | 00:00:00 | 00:00:00 | 00:00:00 | |
| AUTORXJP | 2026-09-04 00:22:33 | 43.54495 | 4.75107 | 135° | 42km/h | 18572m | 3.3m/s | -59.9°C | 0.5% | 73.8hPa | 0V | 00:00:00 | 00:00:00 | 00:00:00 | |
| AUTORXJP | 2026-09-04 00:22:02 | 43.54622 | 4.74866 | 154° | 16km/h | 18429m | 3.9m/s | -60.1°C | 0.7% | 75.5hPa | 0V | 00:00:00 | 00:00:00 | 00:00:00 | |
| AUTORXJP | 2026-09-04 00:21:31 | 43.54771 | 4.74862 | 182° | 26km/h | 18277m | 4.0m/s | -60.0°C | 1.1% | 77.4hPa | 0V | 00:00:00 | 00:00:00 | 00:00:00 | |
| AUTORXJP | 2026-09-04 00:21:00 | 43.55035 | 4.74833 | 162° | 38km/h | 18130m | 3.9m/s | -59.6°C | 1.4% | 79.3hPa | 0V | 00:00:00 | 00:00:00 | 00:00:00 | |
| AUTORXJP | 2026-09-04 00:20:29 | 43.55365 | 4.74670 | 160° | 49km/h | 17987m | 4.8m/s | -60.1°C | 1.8% | 81.1hPa | 0V | 00:00:00 | 00:00:00 | 00:00:00 | |
| AUTORXJP | 2026-09-04 00:19:58 | 43.55679 | 4.74369 | 124° | 42km/h | 17843m | 5.1m/s | -59.9°C | 2.1% | 83.0hPa | 0V | 00:00:00 | 00:00:00 | 00:00:00 | |
| AUTORXJP | 2026-09-04 00:19:27 | 43.55871 | 4.73877 | 107° | 53km/h | 17701m | 4.3m/s | -60.5°C | 2.5% | 84.9hPa | 0V | 00:00:00 | 00:00:00 | 00:00:00 | |
| AUTORXJP | 2026-09-04 00:18:56 | 43.55919 | 4.73359 | 93° | 47km/h | 17562m | 2.9m/s | -60.4°C | 3.2% | 86.9hPa | 0V | 00:00:00 | 00:00:00 | 00:00:00 | |
| AUTORXJP | 2026-09-04 00:18:25 | 43.55873 | 4.72887 | 72° | 46km/h | 17417m | 5.3m/s | -60.3°C | 4.0% | 88.9hPa | 0V | 00:00:00 | 00:00:00 | 00:00:00 | |
| AUTORXJP | 2026-09-04 00:17:53 | 43.55817 | 4.72553 | 92° | 20km/h | 17273m | 3.7m/s | -60.2°C | 4.8% | 91.0hPa | 0V | 00:00:00 | 00:00:00 | 00:00:00 | |
| AUTORXJP | 2026-09-04 00:17:22 | 43.55802 | 4.72374 | 88° | 5km/h | 17137m | 4.8m/s | -60.4°C | 5.5% | 93.0hPa | 0V | 00:00:00 | 00:00:00 | 00:00:00 | |
| AUTORXJP | 2026-09-04 00:16:51 | 43.55919 | 4.72310 | 161° | 22km/h | 17005m | 5.0m/s | -61.7°C | 6.1% | 95.0hPa | 0V | 00:00:00 | 00:00:00 | 00:00:00 | |
| AUTORXJP | 2026-09-04 00:16:20 | 43.56077 | 4.72204 | 162° | 27km/h | 16872m | 4.8m/s | -62.7°C | 6.4% | 97.1hPa | 0V | 00:00:00 | 00:00:00 | 00:00:00 | |
| AUTORXJP | 2026-09-04 00:15:49 | 43.56333 | 4.72113 | 171° | 38km/h | 16735m | 3.7m/s | -63.5°C | 6.9% | 99.3hPa | 0V | 00:00:00 | 00:00:00 | 00:00:00 | |
| AUTORXJP | 2026-09-04 00:15:18 | 43.56648 | 4.71922 | 140° | 49km/h | 16597m | 4.3m/s | -63.8°C | 7.5% | 101.6hPa | 0V | 00:00:00 | 00:00:00 | 00:00:00 | |
| AUTORXJP | 2026-09-04 00:14:47 | 43.56886 | 4.71609 | 125° | 29km/h | 16457m | 4.6m/s | -63.7°C | 8.3% | 103.9hPa | 0V | 00:00:00 | 00:00:00 | 00:00:00 | |
| AUTORXJP | 2026-09-04 00:14:16 | 43.57041 | 4.71344 | 123° | 24km/h | 16317m | 4.3m/s | -63.3°C | 9.2% | 106.4hPa | 0V | 00:00:00 | 00:00:00 | 00:00:00 | |
| AUTORXJP | 2026-09-04 00:13:45 | 43.57189 | 4.71176 | 146° | 29km/h | 16176m | 4.5m/s | -63.1°C | 10.3% | 108.8hPa | 0V | 00:00:00 | 00:00:00 | 00:00:00 | |
| AUTORXJP | 2026-09-04 00:13:14 | 43.57404 | 4.70962 | 145° | 37km/h | 16039m | 6.7m/s | -62.7°C | 11.1% | 111.3hPa | 0V | 00:00:00 | 00:00:00 | 00:00:00 | |
| AUTORXJP | 2026-09-04 00:12:43 | 43.57669 | 4.70674 | 140° | 47km/h | 15903m | 4.8m/s | -64.8°C | 11.7% | 113.8hPa | 0V | 00:00:00 | 00:00:00 | 00:00:00 | |
| AUTORXJP | 2026-09-04 00:12:12 | 43.57908 | 4.70363 | 124° | 42km/h | 15770m | 3.0m/s | -65.9°C | 12.6% | 116.3hPa | 0V | 00:00:00 | 00:00:00 | 00:00:00 | |
| AUTORXJP | 2026-09-04 00:11:41 | 43.58171 | 4.70045 | 135° | 46km/h | 15641m | 5.0m/s | -65.1°C | 13.7% | 118.8hPa | 0V | 00:00:00 | 00:00:00 | 00:00:00 | |
| AUTORXJP | 2026-09-04 00:11:09 | 43.58473 | 4.69687 | 137° | 62km/h | 15512m | 4.4m/s | -65.1°C | 15.0% | 121.4hPa | 0V | 00:00:00 | 00:00:00 | 00:00:00 | |
| AUTORXJP | 2026-09-04 00:10:38 | 43.58796 | 4.69172 | 130° | 60km/h | 15372m | 4.5m/s | -65.3°C | 16.7% | 124.2hPa | 0V | 00:00:00 | 00:00:00 | 00:00:00 | |
| AUTORXJP | 2026-09-04 00:10:07 | 43.59071 | 4.68704 | 128° | 42km/h | 15242m | 3.0m/s | -64.5°C | 18.4% | 127.0hPa | 0V | 00:00:00 | 00:00:00 | 00:00:00 | |
| AUTORXJP | 2026-09-04 00:09:36 | 43.59347 | 4.68255 | 126° | 57km/h | 15111m | 6.5m/s | -64.5°C | 20.1% | 129.7hPa | 0V | 00:00:00 | 00:00:00 | 00:00:00 | |
| AUTORXJP | 2026-09-04 00:09:05 | 43.59616 | 4.67736 | 120° | 57km/h | 14971m | 6.5m/s | -64.4°C | 22.4% | 132.8hPa | 0V | 00:00:00 | 00:00:00 | 00:00:00 | |
| AUTORXJP | 2026-09-04 00:08:03 | 43.60034 | 4.66731 | 132° | 42km/h | 14701m | 4.3m/s | -63.7°C | 28.4% | 138.8hPa | 0V | 00:00:00 | 00:00:00 | 00:00:00 | |
| AUTORXJP | 2026-09-04 00:07:32 | 43.60339 | 4.66372 | 135° | 49km/h | 14559m | 4.9m/s | -65.0°C | 30.1% | 142.0hPa | 0V | 00:00:00 | 00:00:00 | 00:00:00 | |
| AUTORXJP | 2026-09-04 00:07:01 | 43.60684 | 4.65927 | 134° | 57km/h | 14422m | 3.2m/s | -65.1°C | 31.7% | 145.3hPa | 0V | 00:00:00 | 00:00:00 | 00:00:00 | |
| AUTORXJP | 2026-09-04 00:06:30 | 43.61045 | 4.65384 | 132° | 69km/h | 14280m | 3.2m/s | -64.5°C | 33.5% | 148.7hPa | 0V | 00:00:00 | 00:00:00 | 00:00:00 | |
| AUTORXJP | 2026-09-04 00:05:59 | 43.61374 | 4.64835 | 133° | 66km/h | 14147m | 3.8m/s | -64.2°C | 35.1% | 151.9hPa | 0V | 00:00:00 | 00:00:00 | 00:00:00 | |
| AUTORXJP | 2026-09-04 00:05:27 | 43.61739 | 4.64424 | 147° | 60km/h | 14016m | 4.0m/s | -64.8°C | 34.9% | 155.2hPa | 0V | 00:00:00 | 00:00:00 | 00:00:00 | |
| AUTORXJP | 2026-09-04 00:04:56 | 43.62187 | 4.64135 | 160° | 75km/h | 13887m | 3.5m/s | -65.4°C | 34.2% | 158.6hPa | 0V | 00:00:00 | 00:00:00 | 00:00:00 | |
| AUTORXJP | 2026-09-04 00:04:27 | 43.62712 | 4.63861 | 157° | 68km/h | 13765m | 5.0m/s | -65.3°C | 35.5% | 161.8hPa | 0V | 00:00:00 | 00:00:00 | 00:00:00 | |
| AUTORXJP | 2026-09-04 00:03:54 | 43.63234 | 4.63532 | 155° | 73km/h | 13639m | 5.3m/s | -65.0°C | 36.0% | 165.1hPa | 0V | 00:00:00 | 00:00:00 | 00:00:00 | |
| AUTORXJP | 2026-09-04 00:03:23 | 43.63760 | 4.63208 | 155° | 73km/h | 13515m | 5.6m/s | -64.1°C | 36.7% | 168.6hPa | 0V | 00:00:00 | 00:00:00 | 00:00:00 | |
| AUTORXJP | 2026-09-04 00:02:07 | 43.65491 | 4.62195 | 157° | 84km/h | 13143m | 4.9m/s | -61.9°C | 36.9% | 179.1hPa | 0V | 00:00:00 | 00:00:00 | 00:00:00 | |
| AUTORXJP | 2026-09-04 00:01:21 | 43.66088 | 4.61843 | 156° | 80km/h | 13019m | 5.0m/s | -61.1°C | 37.0% | 182.7hPa | 0V | 00:00:00 | 00:00:00 | 00:00:00 | |
| AUTORXJP | 2026-09-04 00:00:48 | 43.66669 | 4.61481 | 154° | 82km/h | 12899m | 4.5m/s | -60.3°C | 37.1% | 186.3hPa | 0V | 00:00:00 | 00:00:00 | 00:00:00 | |
| AUTORXJP | 2026-09-04 00:00:19 | 43.67241 | 4.61137 | 157° | 77km/h | 12774m | 4.4m/s | -59.6°C | 35.9% | 190.0hPa | 0V | 00:00:00 | 00:00:00 | 00:00:00 | |
| AUTORXJP | 2026-09-03 23:59:46 | 43.67808 | 4.60812 | 157° | 75km/h | 12653m | 4.8m/s | -58.7°C | 35.6% | 193.8hPa | 0V | 00:00:00 | 00:00:00 | 00:00:00 | |
| AUTORXJP | 2026-09-03 23:59:14 | 43.68356 | 4.60521 | 159° | 69km/h | 12533m | 4.3m/s | -57.8°C | 36.8% | 197.6hPa | 0V | 00:00:00 | 00:00:00 | 00:00:00 | |
| AUTORXJP | 2026-09-03 23:58:43 | 43.68869 | 4.60233 | 156° | 64km/h | 12407m | 3.8m/s | -57.0°C | 37.3% | 201.5hPa | 0V | 00:00:00 | 00:00:00 | 00:00:00 | |
| AUTORXJP | 2026-09-03 23:58:12 | 43.69371 | 4.59923 | 155° | 69km/h | 12280m | 4.4m/s | -56.1°C | 38.3% | 205.6hPa | 0V | 00:00:00 | 00:00:00 | 00:00:00 | |
| AUTORXJP | 2026-09-03 23:57:41 | 43.69836 | 4.59635 | 147° | 58km/h | 12157m | 4.1m/s | -55.4°C | 38.5% | 209.7hPa | 0V | 00:00:00 | 00:00:00 | 00:00:00 | |
| AUTORXJP | 2026-09-03 23:57:10 | 43.70258 | 4.59330 | 149° | 57km/h | 12034m | 4.9m/s | -54.4°C | 38.3% | 213.8hPa | 0V | 00:00:00 | 00:00:00 | 00:00:00 | |
| AUTORXJP | 2026-09-03 23:56:39 | 43.70666 | 4.59002 | 148° | 60km/h | 11908m | 4.8m/s | -53.5°C | 38.2% | 218.0hPa | 0V | 00:00:00 | 00:00:00 | 00:00:00 | |
| AUTORXJP | 2026-09-03 23:56:08 | 43.71044 | 4.58662 | 145° | 57km/h | 11777m | 4.4m/s | -52.5°C | 38.7% | 222.6hPa | 0V | 00:00:00 | 00:00:00 | 00:00:00 | |
| AUTORXJP | 2026-09-03 23:55:37 | 43.71366 | 4.58310 | 144° | 47km/h | 11645m | 5.7m/s | -51.5°C | 36.1% | 227.1hPa | 0V | 00:00:00 | 00:00:00 | 00:00:00 | |
| AUTORXJP | 2026-09-03 23:55:06 | 43.71666 | 4.57973 | 147° | 57km/h | 11510m | 4.3m/s | -50.2°C | 33.2% | 231.9hPa | 0V | 00:00:00 | 00:00:00 | 00:00:00 | |
| AUTORXJP | 2026-09-03 23:54:04 | 43.72312 | 4.57351 | 148° | 46km/h | 11241m | 4.8m/s | -47.7°C | 26.7% | 241.7hPa | 0V | 00:00:00 | 00:00:00 | 00:00:00 | |
| AUTORXJP | 2026-09-03 23:53:33 | 43.72648 | 4.57072 | 147° | 47km/h | 11104m | 4.2m/s | -46.5°C | 24.7% | 246.7hPa | 0V | 00:00:00 | 00:00:00 | 00:00:00 | |
| AUTORXJP | 2026-09-03 23:53:02 | 43.72960 | 4.56781 | 140° | 47km/h | 10967m | 5.9m/s | -45.3°C | 23.1% | 251.9hPa | 0V | 00:00:00 | 00:00:00 | 00:00:00 | |
| AUTORXJP | 2026-09-03 23:52:31 | 43.73268 | 4.56503 | 146° | 42km/h | 10833m | 5.3m/s | -44.2°C | 23.0% | 257.0hPa | 0V | 00:00:00 | 00:00:00 | 00:00:00 | |
| AUTORXJP | 2026-09-03 23:51:59 | 43.73569 | 4.56209 | 145° | 49km/h | 10696m | 5.4m/s | -43.0°C | 23.6% | 262.4hPa | 0V | 00:00:00 | 00:00:00 | 00:00:00 | |
| AUTORXJP | 2026-09-03 23:50:57 | 43.74059 | 4.55542 | 130° | 44km/h | 10435m | 4.5m/s | -40.8°C | 23.6% | 272.6hPa | 0V | 00:00:00 | 00:00:00 | 00:00:00 | |
| AUTORXJP | 2026-09-03 23:50:26 | 43.74247 | 4.55206 | 122° | 40km/h | 10304m | 5.1m/s | -39.6°C | 22.9% | 278.0hPa | 0V | 00:00:00 | 00:00:00 | 00:00:00 | |
| AUTORXJP | 2026-09-03 23:49:55 | 43.74415 | 4.54890 | 123° | 29km/h | 10181m | 3.7m/s | -38.6°C | 22.3% | 283.1hPa | 0V | 00:00:00 | 00:00:00 | 00:00:00 | |
| AUTORXJP | 2026-09-03 23:49:24 | 43.74575 | 4.54610 | 128° | 38km/h | 10055m | 3.1m/s | -37.5°C | 21.6% | 288.3hPa | 0V | 00:00:00 | 00:00:00 | 00:00:00 | |
| AUTORXJP | 2026-09-03 23:48:53 | 43.74754 | 4.54303 | 125° | 40km/h | 9934m | 4.0m/s | -36.6°C | 20.8% | 293.4hPa | 0V | 00:00:00 | 00:00:00 | 00:00:00 | |
| AUTORXJP | 2026-09-03 23:48:22 | 43.74922 | 4.53941 | 120° | 42km/h | 9817m | 2.4m/s | -35.9°C | 22.8% | 298.5hPa | 0V | 00:00:00 | 00:00:00 | 00:00:00 | |
| AUTORXJP | 2026-09-03 23:47:51 | 43.75099 | 4.53580 | 124° | 38km/h | 9698m | 3.8m/s | -35.0°C | 23.0% | 303.6hPa | 0V | 00:00:00 | 00:00:00 | 00:00:00 | |
| AUTORXJP | 2026-09-03 23:47:20 | 43.75264 | 4.53206 | 120° | 44km/h | 9578m | 4.8m/s | -34.0°C | 22.1% | 308.9hPa | 0V | 00:00:00 | 00:00:00 | 00:00:00 | |
| AUTORXJP | 2026-09-03 23:46:49 | 43.75415 | 4.52867 | 135° | 31km/h | 9442m | 3.1m/s | -32.9°C | 20.6% | 314.7hPa | 0V | 00:00:00 | 00:00:00 | 00:00:00 | |
| AUTORXJP | 2026-09-03 23:46:18 | 43.75564 | 4.52505 | 119° | 37km/h | 9306m | 7.9m/s | -31.6°C | 17.0% | 321.2hPa | 0V | 00:00:00 | 00:00:00 | 00:00:00 | |
| AUTORXJP | 2026-09-03 23:45:46 | 43.75676 | 4.52127 | 110° | 37km/h | 9148m | 3.7m/s | -30.4°C | 15.8% | 328.3hPa | 0V | 00:00:00 | 00:00:00 | 00:00:00 | |
| AUTORXJP | 2026-09-03 23:45:16 | 43.75777 | 4.51753 | 99° | 33km/h | 9033m | 2.8m/s | -29.5°C | 15.5% | 333.6hPa | 0V | 00:00:00 | 00:00:00 | 00:00:00 | |
| AUTORXJP | 2026-09-03 23:44:44 | 43.75873 | 4.51350 | 107° | 29km/h | 8882m | 5.0m/s | -28.1°C | 16.1% | 340.8hPa | 0V | 00:00:00 | 00:00:00 | 00:00:00 | |
| AUTORXJP | 2026-09-03 23:44:13 | 43.75967 | 4.50984 | 99° | 31km/h | 8747m | 3.1m/s | -26.9°C | 15.1% | 347.4hPa | 0V | 00:00:00 | 00:00:00 | 00:00:00 | |
| AUTORXJP | 2026-09-03 23:43:42 | 43.76076 | 4.50587 | 114° | 38km/h | 8644m | 4.0m/s | -26.1°C | 14.3% | 352.4hPa | 0V | 00:00:00 | 00:00:00 | 00:00:00 | |
| AUTORXJP | 2026-09-03 23:43:11 | 43.76181 | 4.50152 | 112° | 37km/h | 8544m | 2.3m/s | -25.3°C | 13.2% | 357.3hPa | 0V | 00:00:00 | 00:00:00 | 00:00:00 | |
| AUTORXJP | 2026-09-03 23:42:40 | 43.76284 | 4.49718 | 106° | 42km/h | 8442m | 2.6m/s | -24.5°C | 14.2% | 362.3hPa | 0V | 00:00:00 | 00:00:00 | 00:00:00 | |
| AUTORXJP | 2026-09-03 23:42:09 | 43.76406 | 4.49284 | 113° | 44km/h | 8345m | 4.7m/s | -23.8°C | 15.3% | 367.3hPa | 0V | 00:00:00 | 00:00:00 | 00:00:00 | |
| AUTORXJP | 2026-09-03 23:41:38 | 43.76532 | 4.48834 | 107° | 42km/h | 8243m | 2.6m/s | -23.2°C | 14.0% | 372.4hPa | 0V | 00:00:00 | 00:00:00 | 00:00:00 | |
| AUTORXJP | 2026-09-03 23:41:07 | 43.76620 | 4.48379 | 101° | 44km/h | 8143m | 4.2m/s | -22.8°C | 16.1% | 377.7hPa | 0V | 00:00:00 | 00:00:00 | 00:00:00 | |
| AUTORXJP | 2026-09-03 23:40:36 | 43.76695 | 4.47890 | 110° | 53km/h | 8024m | 3.3m/s | -22.1°C | 17.6% | 383.6hPa | 0V | 00:00:00 | 00:00:00 | 00:00:00 | |
| AUTORXJP | 2026-09-03 23:40:05 | 43.76779 | 4.47393 | 115° | 40km/h | 7872m | 5.7m/s | -21.1°C | 18.9% | 391.5hPa | 0V | 00:00:00 | 00:00:00 | 00:00:00 | |
| AUTORXJP | 2026-09-03 23:39:34 | 43.76844 | 4.47016 | 89° | 33km/h | 7696m | 3.6m/s | -19.6°C | 17.7% | 400.9hPa | 0V | 00:00:00 | 00:00:00 | 00:00:00 | |
| AUTORXJP | 2026-09-03 23:39:03 | 43.76880 | 4.46674 | 74° | 31km/h | 7539m | 6.5m/s | -18.2°C | 16.5% | 409.7hPa | 0V | 00:00:00 | 00:00:00 | 00:00:00 | |
| AUTORXJP | 2026-09-03 23:38:31 | 43.76906 | 4.46352 | 97° | 27km/h | 7376m | 6.6m/s | -16.8°C | 15.9% | 418.5hPa | 0V | 00:00:00 | 00:00:00 | 00:00:00 | |
| AUTORXJP | 2026-09-03 23:38:00 | 43.76950 | 4.46033 | 125° | 27km/h | 7212m | 4.6m/s | -15.8°C | 16.1% | 428.0hPa | 0V | 00:00:00 | 00:00:00 | 00:00:00 | |
| AUTORXJP | 2026-09-03 23:37:30 | 43.77029 | 4.45715 | 117° | 37km/h | 7028m | 4.8m/s | -14.5°C | 20.7% | 438.4hPa | 0V | 00:00:00 | 00:00:00 | 00:00:00 | |
| AUTORXJP | 2026-09-03 23:36:58 | 43.77163 | 4.45357 | 124° | 42km/h | 6854m | 7.2m/s | -13.4°C | 21.8% | 448.8hPa | 0V | 00:00:00 | 00:00:00 | 00:00:00 |